createdAt,value
2023-03-05T00:00:14.750Z,223
2023-03-05T00:00:44.828Z,222
2023-03-05T00:01:15.655Z,224
2023-03-05T00:01:48.740Z,201
2023-03-05T00:02:17.495Z,201
2023-03-05T00:02:50.931Z,232
2023-03-05T00:03:19.600Z,225
2023-03-05T00:03:51.448Z,224
2023-03-05T00:04:21.710Z,218
2023-03-05T00:04:52.572Z,225
2023-03-05T00:05:23.904Z,219
2023-03-05T00:05:54.411Z,214
2023-03-05T00:06:25.569Z,202
2023-03-05T00:06:56.789Z,199
2023-03-05T00:07:27.638Z,213
2023-03-05T00:07:58.488Z,233
2023-03-05T00:08:29.652Z,229
2023-03-05T00:09:00.705Z,220
2023-03-05T00:09:31.777Z,230
2023-03-05T00:10:02.755Z,230
2023-03-05T00:10:33.719Z,226
2023-03-05T00:11:04.696Z,214
2023-03-05T00:11:35.552Z,209
2023-03-05T00:12:06.725Z,220
2023-03-05T00:12:38.049Z,234
2023-03-05T00:13:08.704Z,225
2023-03-05T00:13:39.397Z,198
2023-03-05T00:14:10.890Z,203
2023-03-05T00:14:41.533Z,228
2023-03-05T00:15:13.564Z,217
2023-03-05T00:15:43.593Z,232
2023-03-05T00:16:14.615Z,237
2023-03-05T00:16:45.305Z,209
2023-03-05T00:17:16.444Z,229
2023-03-05T00:17:47.374Z,224
2023-03-05T00:18:18.405Z,231
2023-03-05T00:18:49.423Z,216
2023-03-05T00:19:21.137Z,213
2023-03-05T00:19:51.578Z,201
2023-03-05T00:20:23.458Z,229
2023-03-05T00:20:53.655Z,212
2023-03-05T00:21:24.486Z,173
2023-03-05T00:21:55.766Z,230
2023-03-05T00:22:26.449Z,200
2023-03-05T00:22:57.773Z,228
2023-03-05T00:23:28.609Z,235
2023-03-05T00:23:59.834Z,205
2023-03-05T00:24:30.631Z,218
2023-03-05T00:25:01.645Z,219
2023-03-05T00:25:32.378Z,219
2023-03-05T00:26:03.387Z,205
2023-03-05T00:26:35.114Z,233
2023-03-05T00:27:05.609Z,222
2023-03-05T00:27:36.486Z,203
2023-03-05T00:28:07.675Z,214
2023-03-05T00:28:38.832Z,146
2023-03-05T00:29:09.590Z,232
2023-03-05T00:29:40.404Z,217
2023-03-05T00:30:12.414Z,216
2023-03-05T00:30:42.534Z,213
2023-03-05T00:31:13.561Z,240
2023-03-05T00:31:44.705Z,237
2023-03-05T00:32:15.901Z,252
2023-03-05T00:32:46.805Z,242
2023-03-05T00:33:19.849Z,240
2023-03-05T00:33:48.904Z,130
2023-03-05T00:34:21.102Z,163
2023-03-05T00:34:51.018Z,224
2023-03-05T00:35:23.228Z,254
2023-03-05T00:35:52.873Z,251
2023-03-05T00:36:23.667Z,233
2023-03-05T00:36:54.695Z,232
2023-03-05T00:37:25.778Z,229
2023-03-05T00:37:56.740Z,228
2023-03-05T00:38:27.766Z,220
2023-03-05T00:38:58.528Z,201
2023-03-05T00:39:29.526Z,228
2023-03-05T00:40:01.239Z,219
2023-03-05T00:40:31.782Z,213
2023-03-05T00:41:02.718Z,212
2023-03-05T00:41:33.726Z,232
2023-03-05T00:42:04.597Z,226
2023-03-05T00:42:36.361Z,228
2023-03-05T00:43:06.837Z,237
2023-03-05T00:43:37.506Z,221
2023-03-05T00:44:08.542Z,215
2023-03-05T00:44:39.691Z,195
2023-03-05T00:45:12.323Z,224
2023-03-05T00:45:41.690Z,210
2023-03-05T00:46:12.637Z,203
2023-03-05T00:46:43.654Z,230
2023-03-05T00:47:14.817Z,245
2023-03-05T00:47:45.949Z,209
2023-03-05T00:48:16.567Z,196
2023-03-05T00:48:47.975Z,197
2023-03-05T00:49:18.782Z,215
2023-03-05T00:49:49.723Z,221
2023-03-05T00:50:21.238Z,235
2023-03-05T00:50:51.786Z,242
2023-03-05T00:51:22.729Z,233
2023-03-05T00:51:53.588Z,222
2023-03-05T00:52:24.710Z,235
2023-03-05T00:52:55.705Z,243
2023-03-05T00:53:26.618Z,242
2023-03-05T00:53:58.117Z,226
2023-03-05T00:54:28.628Z,217
2023-03-05T00:54:59.686Z,204
2023-03-05T00:55:31.228Z,217
2023-03-05T00:56:01.879Z,221
2023-03-05T00:56:32.828Z,221
2023-03-05T00:57:03.596Z,215
2023-03-05T00:57:35.008Z,201
2023-03-05T00:58:05.630Z,224
2023-03-05T00:58:36.711Z,206
2023-03-05T00:59:07.762Z,213
2023-03-05T00:59:38.827Z,221
2023-03-05T01:00:10.858Z,207
2023-03-05T01:00:41.258Z,203
2023-03-05T01:01:11.697Z,214
2023-03-05T01:01:42.734Z,219
2023-03-05T01:02:13.731Z,229
2023-03-05T01:02:44.478Z,227
2023-03-05T01:03:15.660Z,253
2023-03-05T01:03:46.912Z,250
2023-03-05T01:04:18.139Z,226
2023-03-05T01:04:50.310Z,213
2023-03-05T01:05:20.556Z,225
2023-03-05T01:05:53.227Z,229
2023-03-05T01:06:21.977Z,238
2023-03-05T01:06:54.077Z,231
2023-03-05T01:07:23.467Z,191
2023-03-05T01:07:54.869Z,178
2023-03-05T01:08:25.619Z,237
2023-03-05T01:08:56.629Z,233
2023-03-05T01:09:27.690Z,240
2023-03-05T01:09:58.630Z,236
2023-03-05T01:10:30.089Z,224
2023-03-05T01:11:00.908Z,220
2023-03-05T01:11:31.849Z,234
2023-03-05T01:12:02.615Z,231
2023-03-05T01:12:33.972Z,238
2023-03-05T01:13:05.012Z,198
2023-03-05T01:13:35.625Z,199
2023-03-05T01:14:06.844Z,234
2023-03-05T01:14:37.643Z,225
2023-03-05T01:15:09.446Z,218
2023-03-05T01:15:39.585Z,217
2023-03-05T01:16:10.715Z,189
2023-03-05T01:16:41.640Z,244
2023-03-05T01:17:12.655Z,197
2023-03-05T01:17:43.668Z,187
2023-03-05T01:18:14.668Z,147
2023-03-05T01:18:45.702Z,234
2023-03-05T01:19:16.723Z,235
2023-03-05T01:19:47.525Z,230
2023-03-05T01:20:19.347Z,230
2023-03-05T01:20:50.069Z,235
2023-03-05T01:21:20.938Z,223
2023-03-05T01:21:51.876Z,223
2023-03-05T01:22:22.621Z,190
2023-03-05T01:22:54.020Z,152
2023-03-05T01:23:24.739Z,158
2023-03-05T01:23:55.552Z,248
2023-03-05T01:24:26.589Z,257
2023-03-05T01:24:57.694Z,257
2023-03-05T01:25:29.266Z,258
2023-03-05T01:26:00.182Z,250
2023-03-05T01:26:30.674Z,251
2023-03-05T01:27:01.668Z,245
2023-03-05T01:27:32.846Z,246
2023-03-05T01:28:03.572Z,256
2023-03-05T01:28:34.540Z,254
2023-03-05T01:29:05.586Z,223
2023-03-05T01:29:36.638Z,225
2023-03-05T01:30:08.490Z,229
2023-03-05T01:30:38.713Z,227
2023-03-05T01:31:09.935Z,234
2023-03-05T01:31:40.752Z,195
2023-03-05T01:32:11.607Z,210
2023-03-05T01:32:42.795Z,215
2023-03-05T01:33:13.804Z,210
2023-03-05T01:33:44.607Z,251
2023-03-05T01:34:15.675Z,221
2023-03-05T01:34:46.807Z,243
2023-03-05T01:35:18.274Z,234
2023-03-05T01:35:48.628Z,214
2023-03-05T01:36:21.542Z,224
2023-03-05T01:36:50.687Z,225
2023-03-05T01:37:23.528Z,186
2023-03-05T01:37:52.899Z,171
2023-03-05T01:38:24.973Z,203
2023-03-05T01:38:55.373Z,211
2023-03-05T01:39:25.762Z,203
2023-03-05T01:39:57.199Z,257
2023-03-05T01:40:43.578Z,211
2023-03-05T01:40:58.700Z,212
2023-03-05T01:41:29.696Z,231
2023-03-05T01:42:00.660Z,240
2023-03-05T01:42:32.009Z,230
2023-03-05T01:43:03.040Z,199
2023-03-05T01:43:34.049Z,206
2023-03-05T01:44:04.958Z,229
2023-03-05T01:44:35.850Z,230
2023-03-05T01:45:07.635Z,221
2023-03-05T01:45:38.139Z,173
2023-03-05T01:46:08.799Z,162
2023-03-05T01:46:40.006Z,187
2023-03-05T01:47:10.782Z,197
2023-03-05T01:47:41.741Z,160
2023-03-05T01:48:12.693Z,166
2023-03-05T01:48:43.819Z,223
2023-03-05T01:49:14.741Z,243
2023-03-05T01:49:46.888Z,244
2023-03-05T01:50:17.332Z,243
2023-03-05T01:50:47.781Z,217
2023-03-05T01:51:18.910Z,242
2023-03-05T01:51:50.088Z,235
2023-03-05T01:52:20.588Z,209
2023-03-05T01:52:51.661Z,191
2023-03-05T01:53:22.818Z,214
2023-03-05T01:53:53.870Z,208
2023-03-05T01:54:24.955Z,215
2023-03-05T01:54:55.772Z,211
2023-03-05T01:55:27.784Z,218
2023-03-05T01:55:58.021Z,226
2023-03-05T01:56:29.012Z,166
2023-03-05T01:56:59.929Z,207
2023-03-05T01:57:30.667Z,240
2023-03-05T01:58:01.752Z,244
2023-03-05T01:58:32.789Z,239
2023-03-05T01:59:03.962Z,237
2023-03-05T01:59:35.347Z,234
2023-03-05T02:00:06.800Z,233
2023-03-05T02:00:37.134Z,216
2023-03-05T02:01:08.081Z,237
2023-03-05T02:01:38.837Z,216
2023-03-05T02:02:09.852Z,208
2023-03-05T02:02:40.873Z,234
2023-03-05T02:03:11.786Z,185
2023-03-05T02:03:42.995Z,186
2023-03-05T02:04:14.067Z,174
2023-03-05T02:04:45.022Z,212
2023-03-05T02:05:16.249Z,204
2023-03-05T02:05:47.210Z,227
2023-03-05T02:06:17.829Z,230
2023-03-05T02:06:48.818Z,192
2023-03-05T02:07:19.786Z,223
2023-03-05T02:07:52.120Z,232
2023-03-05T02:08:22.518Z,237
2023-03-05T02:08:53.377Z,210
2023-03-05T02:09:24.034Z,217
2023-03-05T02:09:54.873Z,230
2023-03-05T02:10:26.473Z,217
2023-03-05T02:10:56.872Z,238
2023-03-05T02:11:27.807Z,224
2023-03-05T02:11:58.847Z,224
2023-03-05T02:12:29.763Z,213
2023-03-05T02:13:01.068Z,214
2023-03-05T02:13:31.909Z,219
2023-03-05T02:14:03.105Z,225
2023-03-05T02:14:34.121Z,239
2023-03-05T02:15:06.308Z,197
2023-03-05T02:15:35.959Z,204
2023-03-05T02:16:06.863Z,226
2023-03-05T02:16:37.952Z,220
2023-03-05T02:17:08.700Z,221
2023-03-05T02:17:40.070Z,235
2023-03-05T02:18:10.954Z,225
2023-03-05T02:18:41.899Z,224
2023-03-05T02:19:12.929Z,216
2023-03-05T02:19:44.052Z,200
2023-03-05T02:20:15.186Z,248
2023-03-05T02:20:46.285Z,218
2023-03-05T02:21:16.720Z,212
2023-03-05T02:21:47.774Z,209
2023-03-05T02:22:18.840Z,232
2023-03-05T02:22:50.176Z,223
2023-03-05T02:23:20.830Z,224
2023-03-05T02:23:52.020Z,207
2023-03-05T02:24:23.139Z,212
2023-03-05T02:24:53.865Z,222
2023-03-05T02:25:25.391Z,235
2023-03-05T02:25:56.037Z,234
2023-03-05T02:26:27.265Z,234
2023-03-05T02:26:58.190Z,233
2023-03-05T02:27:29.109Z,220
2023-03-05T02:28:00.029Z,219
2023-03-05T02:28:30.910Z,175
2023-03-05T02:29:02.230Z,198
2023-03-05T02:29:33.020Z,195
2023-03-05T02:30:04.787Z,205
2023-03-05T02:30:35.139Z,209
2023-03-05T02:31:05.879Z,217
2023-03-05T02:31:36.980Z,217
2023-03-05T02:32:08.165Z,217
2023-03-05T02:32:38.992Z,158
2023-03-05T02:33:09.960Z,174
2023-03-05T02:33:41.022Z,234
2023-03-05T02:34:11.892Z,237
2023-03-05T02:34:42.980Z,227
2023-03-05T02:35:14.531Z,226
2023-03-05T02:35:44.957Z,226
2023-03-05T02:36:16.170Z,221
2023-03-05T02:36:47.119Z,222
2023-03-05T02:37:17.915Z,221
2023-03-05T02:37:49.085Z,222
2023-03-05T02:38:20.144Z,222
2023-03-05T02:38:51.144Z,218
2023-03-05T02:39:23.355Z,219
2023-03-05T02:39:53.135Z,222
2023-03-05T02:40:24.710Z,220
2023-03-05T02:40:55.084Z,220
2023-03-05T02:41:26.261Z,220
2023-03-05T02:41:56.915Z,200
2023-03-05T02:42:28.076Z,203
2023-03-05T02:42:59.124Z,189
2023-03-05T02:43:29.881Z,190
2023-03-05T02:44:00.985Z,229
2023-03-05T02:44:31.992Z,238
2023-03-05T02:45:03.830Z,236
2023-03-05T02:45:34.122Z,207
2023-03-05T02:46:05.076Z,224
2023-03-05T02:46:35.911Z,232
2023-03-05T02:47:07.204Z,235
2023-03-05T02:47:38.001Z,195
2023-03-05T02:48:09.001Z,227
2023-03-05T02:48:40.272Z,215
2023-03-05T02:49:11.311Z,215
2023-03-05T02:49:41.979Z,240
2023-03-05T02:50:13.310Z,248
2023-03-05T02:50:44.094Z,232
2023-03-05T02:51:15.037Z,244
2023-03-05T02:51:46.213Z,236
2023-03-05T02:52:17.574Z,225
2023-03-05T02:52:47.974Z,242
2023-03-05T02:53:18.963Z,224
2023-03-05T02:53:49.989Z,229
2023-03-05T02:54:21.240Z,241
2023-03-05T02:54:52.020Z,241
2023-03-05T02:55:23.362Z,209
2023-03-05T02:55:53.970Z,221
2023-03-05T02:56:24.983Z,207
2023-03-05T02:56:56.002Z,211
2023-03-05T02:57:27.220Z,223
2023-03-05T02:57:57.959Z,224
2023-03-05T02:58:28.881Z,215
2023-03-05T02:58:59.901Z,233
2023-03-05T02:59:31.665Z,211
2023-03-05T03:00:02.948Z,231
2023-03-05T03:00:33.393Z,193
2023-03-05T03:01:04.420Z,211
2023-03-05T03:01:35.457Z,217
2023-03-05T03:02:05.885Z,207
2023-03-05T03:02:37.302Z,217
2023-03-05T03:03:08.183Z,220
2023-03-05T03:03:39.449Z,239
2023-03-05T03:04:10.231Z,187
2023-03-05T03:04:41.381Z,156
2023-03-05T03:05:34.442Z,208
2023-03-05T03:05:43.621Z,210
2023-03-05T03:06:14.198Z,226
2023-03-05T03:06:44.891Z,235
2023-03-05T03:07:15.922Z,229
2023-03-05T03:07:46.985Z,229
2023-03-05T03:08:17.997Z,189
2023-03-05T03:08:49.472Z,196
2023-03-05T03:09:20.126Z,207
2023-03-05T03:09:51.368Z,218
2023-03-05T03:10:22.687Z,227
2023-03-05T03:10:54.420Z,223
2023-03-05T03:11:24.551Z,230
2023-03-05T03:11:55.441Z,230
2023-03-05T03:12:26.203Z,251
2023-03-05T03:12:57.091Z,251
2023-03-05T03:13:27.983Z,255
2023-03-05T03:13:59.007Z,255
2023-03-05T03:14:30.380Z,247
2023-03-05T03:15:02.265Z,263
2023-03-05T03:15:32.063Z,248
2023-03-05T03:16:03.418Z,241
2023-03-05T03:16:34.735Z,241
2023-03-05T03:17:05.337Z,241
2023-03-05T03:17:36.381Z,245
2023-03-05T03:18:07.086Z,247
2023-03-05T03:18:37.995Z,250
2023-03-05T03:19:08.984Z,249
2023-03-05T03:19:39.938Z,249
2023-03-05T03:20:11.492Z,249
2023-03-05T03:20:42.303Z,250
2023-03-05T03:21:13.425Z,252
2023-03-05T03:21:44.321Z,254
2023-03-05T03:22:15.093Z,254
2023-03-05T03:22:46.209Z,254
2023-03-05T03:23:17.054Z,254
2023-03-05T03:23:48.183Z,253
2023-03-05T03:24:19.681Z,253
2023-03-05T03:24:50.075Z,251
2023-03-05T03:25:21.640Z,251
2023-03-05T03:25:52.073Z,251
2023-03-05T03:26:23.596Z,251
2023-03-05T03:26:54.365Z,251
2023-03-05T03:27:25.359Z,250
2023-03-05T03:27:56.324Z,250
2023-03-05T03:28:27.172Z,250
2023-03-05T03:28:58.038Z,250
2023-03-05T03:29:29.245Z,250
2023-03-05T03:30:00.172Z,250
2023-03-05T03:30:32.323Z,250
2023-03-05T03:31:02.417Z,250
2023-03-05T03:31:32.980Z,250
2023-03-05T03:32:04.111Z,250
2023-03-05T03:32:35.186Z,250
2023-03-05T03:33:06.371Z,250
2023-03-05T03:33:37.619Z,249
2023-03-05T03:34:08.310Z,249
2023-03-05T03:34:39.106Z,249
2023-03-05T03:35:10.567Z,249
2023-03-05T03:35:41.020Z,249
2023-03-05T03:36:12.342Z,249
2023-03-05T03:36:43.254Z,249
2023-03-05T03:37:14.540Z,249
2023-03-05T03:37:45.631Z,249
2023-03-05T03:38:16.302Z,248
2023-03-05T03:38:47.092Z,248
2023-03-05T03:39:18.156Z,248
2023-03-05T03:39:49.307Z,248
2023-03-05T03:40:20.589Z,248
2023-03-05T03:40:51.197Z,248
2023-03-05T03:41:22.716Z,249
2023-03-05T03:41:53.555Z,249
2023-03-05T03:42:25.630Z,249
2023-03-05T03:42:55.105Z,248
2023-03-05T03:43:27.163Z,248
2023-03-05T03:43:57.015Z,243
2023-03-05T03:44:28.098Z,243
2023-03-05T03:44:59.132Z,244
2023-03-05T03:45:31.281Z,244
2023-03-05T03:46:01.368Z,244
2023-03-05T03:46:32.508Z,244
2023-03-05T03:47:03.396Z,244
2023-03-05T03:47:34.636Z,244
2023-03-05T03:48:05.362Z,245
2023-03-05T03:48:36.239Z,245
2023-03-05T03:49:07.486Z,245
2023-03-05T03:49:38.244Z,245
2023-03-05T03:50:09.835Z,244
2023-03-05T03:50:40.366Z,244
2023-03-05T03:51:11.166Z,244
2023-03-05T03:51:42.224Z,245
2023-03-05T03:52:13.157Z,243
2023-03-05T03:52:44.725Z,240
2023-03-05T03:53:15.292Z,240
2023-03-05T03:53:46.411Z,240
2023-03-05T03:54:17.153Z,240
2023-03-05T03:54:48.169Z,238
2023-03-05T03:55:19.945Z,229
2023-03-05T03:55:50.351Z,230
2023-03-05T03:56:21.086Z,230
2023-03-05T03:56:52.184Z,230
2023-03-05T03:57:23.467Z,230
2023-03-05T03:57:54.572Z,230
2023-03-05T03:58:25.528Z,230
2023-03-05T03:58:56.597Z,231
2023-03-05T03:59:27.554Z,231
2023-03-05T03:59:58.599Z,231
2023-03-05T04:00:30.071Z,231
2023-03-05T04:01:00.693Z,230
2023-03-05T04:01:31.562Z,227
2023-03-05T04:02:02.157Z,227
2023-03-05T04:02:33.286Z,227
2023-03-05T04:03:04.446Z,227
2023-03-05T04:03:35.352Z,228
2023-03-05T04:04:06.196Z,228
2023-03-05T04:04:37.463Z,228
2023-03-05T04:05:08.473Z,228
2023-03-05T04:05:39.169Z,228
2023-03-05T04:06:10.494Z,228
2023-03-05T04:06:41.364Z,228
2023-03-05T04:07:12.256Z,228
2023-03-05T04:07:43.312Z,228
2023-03-05T04:08:14.613Z,228
2023-03-05T04:08:45.341Z,224
2023-03-05T04:09:16.126Z,223
2023-03-05T04:09:47.199Z,231
2023-03-05T04:10:18.854Z,226
2023-03-05T04:10:49.166Z,223
2023-03-05T04:11:20.236Z,234
2023-03-05T04:11:51.369Z,230
2023-03-05T04:12:22.397Z,247
2023-03-05T04:12:53.665Z,217
2023-03-05T04:13:24.736Z,226
2023-03-05T04:13:56.127Z,228
2023-03-05T04:14:26.815Z,210
2023-03-05T04:14:58.996Z,222
2023-03-05T04:15:29.354Z,214
2023-03-05T04:15:59.783Z,223
2023-03-05T04:16:30.250Z,208
2023-03-05T04:17:01.282Z,221
2023-03-05T04:17:32.141Z,222
2023-03-05T04:18:03.437Z,221
2023-03-05T04:18:34.213Z,223
2023-03-05T04:19:05.576Z,232
2023-03-05T04:19:36.966Z,231
2023-03-05T04:20:07.587Z,238
2023-03-05T04:20:38.206Z,225
2023-03-05T04:21:09.131Z,228
2023-03-05T04:21:40.206Z,231
2023-03-05T04:22:11.309Z,246
2023-03-05T04:22:42.448Z,216
2023-03-05T04:23:13.392Z,229
2023-03-05T04:23:44.651Z,220
2023-03-05T04:24:15.693Z,229
2023-03-05T04:24:46.648Z,228
2023-03-05T04:25:17.598Z,233
2023-03-05T04:25:48.203Z,239
2023-03-05T04:26:19.682Z,221
2023-03-05T04:26:50.526Z,226
2023-03-05T04:27:21.309Z,229
2023-03-05T04:27:52.407Z,238
2023-03-05T04:28:23.427Z,229
2023-03-05T04:28:54.316Z,223
2023-03-05T04:29:25.498Z,240
2023-03-05T04:29:56.377Z,243
2023-03-05T04:30:28.402Z,229
2023-03-05T04:30:58.688Z,229
2023-03-05T04:31:29.294Z,245
2023-03-05T04:32:00.289Z,244
2023-03-05T04:32:32.178Z,249
2023-03-05T04:33:02.304Z,240
2023-03-05T04:33:33.179Z,210
2023-03-05T04:34:04.164Z,225
2023-03-05T04:34:35.470Z,235
2023-03-05T04:35:06.888Z,236
2023-03-05T04:35:37.668Z,235
2023-03-05T04:36:08.422Z,228
2023-03-05T04:36:39.646Z,218
2023-03-05T04:37:10.384Z,223
2023-03-05T04:37:41.568Z,224
2023-03-05T04:38:12.489Z,224
2023-03-05T04:38:43.344Z,224
2023-03-05T04:39:14.277Z,232
2023-03-05T04:39:45.327Z,234
2023-03-05T04:40:16.786Z,234
2023-03-05T04:40:49.856Z,234
2023-03-05T04:41:18.321Z,239
2023-03-05T04:41:49.420Z,241
2023-03-05T04:42:20.370Z,234
2023-03-05T04:42:51.298Z,234
2023-03-05T04:43:22.562Z,247
2023-03-05T04:43:53.604Z,250
2023-03-05T04:44:24.700Z,250
2023-03-05T04:44:55.782Z,250
2023-03-05T04:45:28.675Z,252
2023-03-05T04:45:57.555Z,245
2023-03-05T04:46:29.485Z,253
2023-03-05T04:46:59.530Z,253
2023-03-05T04:47:30.660Z,252
2023-03-05T04:48:01.264Z,246
2023-03-05T04:48:32.581Z,236
2023-03-05T04:49:03.443Z,225
2023-03-05T04:49:34.700Z,245
2023-03-05T04:50:05.536Z,244
2023-03-05T04:50:36.388Z,235
2023-03-05T04:51:07.378Z,219
2023-03-05T04:51:38.470Z,220
2023-03-05T04:52:09.591Z,221
2023-03-05T04:52:40.569Z,238
2023-03-05T04:53:11.332Z,250
2023-03-05T04:53:42.362Z,248
2023-03-05T04:54:13.549Z,241
2023-03-05T04:54:44.544Z,241
2023-03-05T04:55:15.980Z,240
2023-03-05T04:55:46.675Z,241
2023-03-05T04:56:17.536Z,240
2023-03-05T04:56:48.689Z,236
2023-03-05T04:57:19.461Z,232
2023-03-05T04:57:50.537Z,231
2023-03-05T04:58:21.598Z,236
2023-03-05T04:58:52.283Z,241
2023-03-05T04:59:23.703Z,237
2023-03-05T04:59:54.365Z,237
2023-03-05T05:00:26.686Z,237
2023-03-05T05:00:58.013Z,235
2023-03-05T05:01:27.822Z,231
2023-03-05T05:01:58.533Z,231
2023-03-05T05:02:29.661Z,230
2023-03-05T05:03:00.777Z,231
2023-03-05T05:03:31.402Z,231
2023-03-05T05:04:02.699Z,231
2023-03-05T05:04:33.606Z,231
2023-03-05T05:05:04.874Z,226
2023-03-05T05:05:35.710Z,231
2023-03-05T05:06:06.896Z,237
2023-03-05T05:06:37.300Z,234
2023-03-05T05:07:08.300Z,234
2023-03-05T05:07:39.359Z,235
2023-03-05T05:08:10.754Z,235
2023-03-05T05:08:41.445Z,235
2023-03-05T05:09:12.413Z,235
2023-03-05T05:09:43.620Z,235
2023-03-05T05:10:15.451Z,234
2023-03-05T05:10:45.430Z,232
2023-03-05T05:11:16.325Z,231
2023-03-05T05:11:47.360Z,230
2023-03-05T05:12:18.742Z,222
2023-03-05T05:12:49.402Z,222
2023-03-05T05:13:20.804Z,228
2023-03-05T05:13:51.450Z,228
2023-03-05T05:14:22.591Z,227
2023-03-05T05:14:53.510Z,217
2023-03-05T05:15:25.340Z,217
2023-03-05T05:15:55.811Z,219
2023-03-05T05:16:26.378Z,223
2023-03-05T05:16:58.612Z,241
2023-03-05T05:17:28.765Z,253
2023-03-05T05:17:59.776Z,232
2023-03-05T05:18:30.651Z,218
2023-03-05T05:19:02.170Z,210
2023-03-05T05:19:32.650Z,223
2023-03-05T05:20:03.982Z,249
2023-03-05T05:20:34.512Z,246
2023-03-05T05:21:05.668Z,237
2023-03-05T05:21:36.794Z,236
2023-03-05T05:22:07.439Z,234
2023-03-05T05:22:38.372Z,234
2023-03-05T05:23:09.616Z,197
2023-03-05T05:23:40.736Z,185
2023-03-05T05:24:11.694Z,203
2023-03-05T05:24:43.326Z,204
2023-03-05T05:25:14.263Z,222
2023-03-05T05:25:44.446Z,222
2023-03-05T05:26:15.721Z,222
2023-03-05T05:26:46.619Z,223
2023-03-05T05:27:17.328Z,223
2023-03-05T05:27:48.684Z,228
2023-03-05T05:28:19.766Z,235
2023-03-05T05:28:50.390Z,237
2023-03-05T05:29:21.735Z,266
2023-03-05T05:29:52.776Z,265
2023-03-05T05:30:24.774Z,265
2023-03-05T05:30:55.069Z,265
2023-03-05T05:31:25.452Z,253
2023-03-05T05:31:56.806Z,235
2023-03-05T05:32:27.450Z,232
2023-03-05T05:32:58.475Z,231
2023-03-05T05:33:29.464Z,231
2023-03-05T05:34:00.499Z,231
2023-03-05T05:34:31.503Z,229
2023-03-05T05:35:02.867Z,234
2023-03-05T05:35:33.699Z,234
2023-03-05T05:36:04.951Z,234
2023-03-05T05:36:35.872Z,234
2023-03-05T05:37:06.828Z,234
2023-03-05T05:37:37.844Z,234
2023-03-05T05:38:08.649Z,240
2023-03-05T05:38:39.724Z,246
2023-03-05T05:39:10.719Z,209
2023-03-05T05:39:41.557Z,211
2023-03-05T05:40:13.240Z,209
2023-03-05T05:40:43.505Z,223
2023-03-05T05:41:14.522Z,224
2023-03-05T05:41:45.845Z,227
2023-03-05T05:42:16.505Z,232
2023-03-05T05:42:47.559Z,233
2023-03-05T05:43:18.496Z,233
2023-03-05T05:43:49.790Z,233
2023-03-05T05:44:20.692Z,233
2023-03-05T05:44:51.828Z,233
2023-03-05T05:45:23.667Z,233
2023-03-05T05:45:54.056Z,232
2023-03-05T05:46:24.723Z,233
2023-03-05T05:46:55.703Z,233
2023-03-05T05:47:26.883Z,232
2023-03-05T05:47:57.689Z,233
2023-03-05T05:48:29.527Z,233
2023-03-05T05:48:59.784Z,233
2023-03-05T05:49:32.239Z,252
2023-03-05T05:50:01.786Z,260
2023-03-05T05:50:32.604Z,260
2023-03-05T05:51:03.736Z,260
2023-03-05T05:51:41.307Z,260
2023-03-05T05:52:07.136Z,260
2023-03-05T05:52:39.474Z,260
2023-03-05T05:53:11.866Z,260
2023-03-05T05:53:41.004Z,257
2023-03-05T05:54:13.839Z,255
2023-03-05T05:54:43.477Z,254
2023-03-05T05:55:14.395Z,254
2023-03-05T05:55:43.962Z,251
2023-03-05T05:56:16.954Z,251
2023-03-05T05:56:47.753Z,251
2023-03-05T05:57:17.233Z,251
2023-03-05T05:57:50.030Z,251
2023-03-05T05:58:20.146Z,243
2023-03-05T05:58:50.563Z,243
2023-03-05T05:59:22.212Z,244
2023-03-05T05:59:53.764Z,242
2023-03-05T06:00:56.307Z,242
2023-03-05T06:01:29.210Z,243
2023-03-05T06:02:37.879Z,220
2023-03-05T06:02:58.478Z,220
2023-03-05T06:03:30.133Z,203
2023-03-05T06:03:59.999Z,208
2023-03-05T06:04:32.963Z,235
2023-03-05T06:05:05.870Z,234
2023-03-05T06:05:33.679Z,234
2023-03-05T06:06:04.881Z,234
2023-03-05T06:06:35.900Z,234
2023-03-05T06:07:08.430Z,223
2023-03-05T06:07:37.804Z,236
2023-03-05T06:08:09.597Z,236
2023-03-05T06:08:38.497Z,236
2023-03-05T06:09:14.264Z,237
2023-03-05T06:09:40.295Z,237
2023-03-05T06:10:17.893Z,235
2023-03-05T06:10:44.297Z,236
2023-03-05T06:11:17.647Z,235
2023-03-05T06:11:45.337Z,235
2023-03-05T06:12:47.954Z,236
2023-03-05T06:13:17.930Z,236
2023-03-05T06:13:48.937Z,236
2023-03-05T06:14:23.444Z,236
2023-03-05T06:14:51.316Z,236
2023-03-05T06:15:27.684Z,236
2023-03-05T06:15:54.286Z,236
2023-03-05T06:16:26.395Z,236
2023-03-05T06:16:57.809Z,236
2023-03-05T06:17:31.061Z,234
2023-03-05T06:17:57.331Z,218
2023-03-05T06:18:28.775Z,208
2023-03-05T06:18:59.681Z,207
2023-03-05T06:19:30.473Z,225
2023-03-05T06:20:12.992Z,244
2023-03-05T06:20:33.276Z,245
2023-03-05T06:22:06.865Z,228
2023-03-05T06:22:40.157Z,215
2023-03-05T06:23:09.792Z,219
2023-03-05T06:24:09.586Z,233
2023-03-05T06:25:18.655Z,234
2023-03-05T06:25:44.740Z,237
2023-03-05T06:26:15.985Z,220
2023-03-05T06:26:45.031Z,214
2023-03-05T06:27:50.915Z,224
2023-03-05T06:28:18.401Z,226
2023-03-05T06:28:47.938Z,215
2023-03-05T06:29:20.919Z,231
2023-03-05T06:29:51.585Z,235
2023-03-05T06:30:25.116Z,233
2023-03-05T06:30:54.265Z,232
2023-03-05T06:31:24.053Z,238
2023-03-05T06:31:55.841Z,238
2023-03-05T06:32:24.738Z,212
2023-03-05T06:32:59.587Z,220
2023-03-05T06:33:58.816Z,213
2023-03-05T06:34:32.250Z,225
2023-03-05T06:35:00.208Z,245
2023-03-05T06:35:32.404Z,244
2023-03-05T06:36:05.402Z,252
2023-03-05T06:36:35.475Z,247
2023-03-05T06:37:03.847Z,248
2023-03-05T06:37:34.160Z,248
2023-03-05T06:38:08.398Z,248
2023-03-05T06:39:08.864Z,249
2023-03-05T06:39:39.016Z,249
2023-03-05T06:40:12.236Z,249
2023-03-05T06:40:41.762Z,248
2023-03-05T06:41:14.880Z,248
2023-03-05T06:41:45.454Z,248
2023-03-05T06:43:16.412Z,238
2023-03-05T06:43:52.375Z,233
2023-03-05T06:44:18.814Z,236
2023-03-05T06:45:25.978Z,235
2023-03-05T06:45:50.230Z,235
2023-03-05T06:46:24.540Z,233
2023-03-05T06:46:56.214Z,224
2023-03-05T06:47:24.922Z,225
2023-03-05T06:47:55.131Z,225
2023-03-05T06:48:28.518Z,225
2023-03-05T06:48:58.534Z,226
2023-03-05T06:49:28.488Z,226
2023-03-05T06:49:59.798Z,226
2023-03-05T06:50:32.129Z,226
2023-03-05T06:51:02.906Z,227
2023-03-05T06:51:34.927Z,227
2023-03-05T06:52:04.161Z,227
2023-03-05T06:53:13.545Z,233
2023-03-05T06:53:40.181Z,232
2023-03-05T06:54:09.779Z,231
2023-03-05T06:55:13.058Z,236
2023-03-05T06:55:40.780Z,238
2023-03-05T06:56:12.995Z,234
2023-03-05T06:57:16.899Z,216
2023-03-05T06:57:46.465Z,217
2023-03-05T06:58:17.635Z,217
2023-03-05T06:58:46.109Z,217
2023-03-05T06:59:19.606Z,217
2023-03-05T06:59:50.110Z,216
2023-03-05T07:00:21.507Z,216
2023-03-05T07:01:22.049Z,217
2023-03-05T07:01:54.357Z,217
2023-03-05T07:02:54.949Z,219
2023-03-05T07:03:26.043Z,219
2023-03-05T07:04:28.036Z,219
2023-03-05T07:04:59.815Z,205
2023-03-05T07:05:36.387Z,200
2023-03-05T07:06:03.310Z,222
2023-03-05T07:06:33.562Z,222
2023-03-05T07:07:03.524Z,220
2023-03-05T07:07:34.262Z,220
2023-03-05T07:08:08.581Z,220
2023-03-05T07:08:37.843Z,220
2023-03-05T07:09:05.557Z,220
2023-03-05T07:09:40.577Z,220
2023-03-05T07:10:10.067Z,220
2023-03-05T07:12:17.064Z,220
2023-03-05T07:12:44.275Z,220
2023-03-05T07:13:13.904Z,220
2023-03-05T07:13:49.757Z,220
2023-03-05T07:14:47.815Z,220
2023-03-05T07:15:19.428Z,220
2023-03-05T07:15:51.594Z,220
2023-03-05T07:16:20.509Z,220
2023-03-05T07:16:52.611Z,220
2023-03-05T07:17:29.238Z,220
2023-03-05T07:17:52.909Z,220
2023-03-05T07:18:26.000Z,220
2023-03-05T07:18:56.637Z,220